sensor_id;sensor_type;location;lat;lon;timestamp;temperature;humidity
10964;DHT22;5534;48.784;9.190;2024-03-29T00:01:50;9.90;99.90
10964;DHT22;5534;48.784;9.190;2024-03-29T00:04:15;10.00;99.90
10964;DHT22;5534;48.784;9.190;2024-03-29T00:06:41;10.10;99.90
10964;DHT22;5534;48.784;9.190;2024-03-29T00:09:06;10.30;99.90
10964;DHT22;5534;48.784;9.190;2024-03-29T00:11:32;10.30;99.90
10964;DHT22;5534;48.784;9.190;2024-03-29T00:13:57;10.40;99.90
10964;DHT22;5534;48.784;9.190;2024-03-29T00:16:24;10.30;99.90
10964;DHT22;5534;48.784;9.190;2024-03-29T00:18:51;10.40;99.90
10964;DHT22;5534;48.784;9.190;2024-03-29T00:21:17;10.30;99.90
10964;DHT22;5534;48.784;9.190;2024-03-29T00:23:43;10.40;99.90
10964;DHT22;5534;48.784;9.190;2024-03-29T00:26:12;10.30;99.90
10964;DHT22;5534;48.784;9.190;2024-03-29T00:28:38;10.30;99.90
10964;DHT22;5534;48.784;9.190;2024-03-29T00:31:04;10.20;99.90
10964;DHT22;5534;48.784;9.190;2024-03-29T00:33:30;10.10;99.90
10964;DHT22;5534;48.784;9.190;2024-03-29T00:35:56;10.30;99.90
10964;DHT22;5534;48.784;9.190;2024-03-29T00:38:21;10.20;99.90
10964;DHT22;5534;48.784;9.190;2024-03-29T00:40:47;10.40;99.90
10964;DHT22;5534;48.784;9.190;2024-03-29T00:43:13;10.50;99.90
10964;DHT22;5534;48.784;9.190;2024-03-29T00:45:38;10.60;99.90
10964;DHT22;5534;48.784;9.190;2024-03-29T00:48:04;10.60;99.90
10964;DHT22;5534;48.784;9.190;2024-03-29T00:50:30;10.60;99.90
10964;DHT22;5534;48.784;9.190;2024-03-29T00:52:55;10.60;99.90
10964;DHT22;5534;48.784;9.190;2024-03-29T00:55:21;10.60;99.90
10964;DHT22;5534;48.784;9.190;2024-03-29T00:57:46;10.60;99.90
10964;DHT22;5534;48.784;9.190;2024-03-29T01:00:12;10.60;99.90
10964;DHT22;5534;48.784;9.190;2024-03-29T01:02:38;10.60;99.90
10964;DHT22;5534;48.784;9.190;2024-03-29T01:05:04;10.60;99.90
10964;DHT22;5534;48.784;9.190;2024-03-29T01:07:30;10.50;99.90
10964;DHT22;5534;48.784;9.190;2024-03-29T01:09:55;10.60;99.90
10964;DHT22;5534;48.784;9.190;2024-03-29T01:12:21;10.70;99.90
10964;DHT22;5534;48.784;9.190;2024-03-29T01:14:46;10.50;99.90
10964;DHT22;5534;48.784;9.190;2024-03-29T01:17:12;10.50;99.90
10964;DHT22;5534;48.784;9.190;2024-03-29T01:19:37;10.50;99.90
10964;DHT22;5534;48.784;9.190;2024-03-29T01:22:03;10.60;99.90
10964;DHT22;5534;48.784;9.190;2024-03-29T01:24:29;10.40;99.90
10964;DHT22;5534;48.784;9.190;2024-03-29T01:26:55;10.30;99.90
10964;DHT22;5534;48.784;9.190;2024-03-29T01:29:21;10.20;99.90
10964;DHT22;5534;48.784;9.190;2024-03-29T01:31:46;10.00;99.90
10964;DHT22;5534;48.784;9.190;2024-03-29T01:34:12;10.30;99.90
10964;DHT22;5534;48.784;9.190;2024-03-29T01:36:38;10.40;99.90
10964;DHT22;5534;48.784;9.190;2024-03-29T01:39:03;10.50;99.90
10964;DHT22;5534;48.784;9.190;2024-03-29T01:41:29;10.40;99.90
10964;DHT22;5534;48.784;9.190;2024-03-29T01:43:55;10.50;99.90
10964;DHT22;5534;48.784;9.190;2024-03-29T01:46:23;10.20;99.90
10964;DHT22;5534;48.784;9.190;2024-03-29T01:48:53;10.40;99.90
10964;DHT22;5534;48.784;9.190;2024-03-29T01:51:21;10.40;99.90
10964;DHT22;5534;48.784;9.190;2024-03-29T01:53:52;10.40;99.90
10964;DHT22;5534;48.784;9.190;2024-03-29T01:56:20;10.70;99.90
10964;DHT22;5534;48.784;9.190;2024-03-29T01:58:46;10.50;99.90
10964;DHT22;5534;48.784;9.190;2024-03-29T02:01:14;10.20;99.90
10964;DHT22;5534;48.784;9.190;2024-03-29T02:03:40;10.20;99.90
10964;DHT22;5534;48.784;9.190;2024-03-29T02:06:06;10.20;99.90
10964;DHT22;5534;48.784;9.190;2024-03-29T02:08:33;10.40;99.90
10964;DHT22;5534;48.784;9.190;2024-03-29T02:10:59;10.30;99.90
10964;DHT22;5534;48.784;9.190;2024-03-29T02:13:25;10.20;99.90
10964;DHT22;5534;48.784;9.190;2024-03-29T02:15:50;10.40;99.90
10964;DHT22;5534;48.784;9.190;2024-03-29T02:18:16;10.20;99.90
10964;DHT22;5534;48.784;9.190;2024-03-29T02:20:42;10.40;99.90
10964;DHT22;5534;48.784;9.190;2024-03-29T02:23:10;10.40;99.90
10964;DHT22;5534;48.784;9.190;2024-03-29T02:25:37;10.40;99.90
10964;DHT22;5534;48.784;9.190;2024-03-29T02:28:03;10.40;99.90
10964;DHT22;5534;48.784;9.190;2024-03-29T02:30:30;10.50;99.90
10964;DHT22;5534;48.784;9.190;2024-03-29T02:32:57;10.60;99.90
10964;DHT22;5534;48.784;9.190;2024-03-29T02:35:22;10.70;99.90
10964;DHT22;5534;48.784;9.190;2024-03-29T02:37:48;10.30;99.90
10964;DHT22;5534;48.784;9.190;2024-03-29T02:40:13;10.50;99.90
10964;DHT22;5534;48.784;9.190;2024-03-29T02:42:39;10.60;99.90
10964;DHT22;5534;48.784;9.190;2024-03-29T02:45:05;10.60;99.90
10964;DHT22;5534;48.784;9.190;2024-03-29T02:47:30;10.70;99.90
10964;DHT22;5534;48.784;9.190;2024-03-29T02:49:56;10.80;99.90
10964;DHT22;5534;48.784;9.190;2024-03-29T02:52:22;10.80;99.90
10964;DHT22;5534;48.784;9.190;2024-03-29T02:54:47;10.80;99.90
10964;DHT22;5534;48.784;9.190;2024-03-29T02:57:13;10.90;99.90
10964;DHT22;5534;48.784;9.190;2024-03-29T02:59:40;10.40;99.90
10964;DHT22;5534;48.784;9.190;2024-03-29T03:02:05;10.60;99.90
10964;DHT22;5534;48.784;9.190;2024-03-29T03:04:31;10.40;99.90
10964;DHT22;5534;48.784;9.190;2024-03-29T03:06:56;10.50;99.90
10964;DHT22;5534;48.784;9.190;2024-03-29T03:09:42;10.50;99.90
10964;DHT22;5534;48.784;9.190;2024-03-29T03:12:26;10.40;99.90
10964;DHT22;5534;48.784;9.190;2024-03-29T03:14:52;10.40;99.90
10964;DHT22;5534;48.784;9.190;2024-03-29T03:17:18;10.60;99.90
10964;DHT22;5534;48.784;9.190;2024-03-29T03:19:43;10.40;99.90
10964;DHT22;5534;48.784;9.190;2024-03-29T03:22:09;10.50;99.90
10964;DHT22;5534;48.784;9.190;2024-03-29T03:24:34;10.50;99.90
10964;DHT22;5534;48.784;9.190;2024-03-29T03:27:00;10.50;99.90
10964;DHT22;5534;48.784;9.190;2024-03-29T03:29:26;10.50;99.90
10964;DHT22;5534;48.784;9.190;2024-03-29T03:31:51;10.40;99.90
10964;DHT22;5534;48.784;9.190;2024-03-29T03:34:17;10.30;99.90
10964;DHT22;5534;48.784;9.190;2024-03-29T03:36:42;10.30;99.90
10964;DHT22;5534;48.784;9.190;2024-03-29T03:39:08;10.20;99.90
10964;DHT22;5534;48.784;9.190;2024-03-29T03:41:33;10.40;99.90
10964;DHT22;5534;48.784;9.190;2024-03-29T03:43:59;10.60;99.90
10964;DHT22;5534;48.784;9.190;2024-03-29T03:46:24;10.60;99.90
10964;DHT22;5534;48.784;9.190;2024-03-29T03:48:50;10.40;99.90
10964;DHT22;5534;48.784;9.190;2024-03-29T03:51:15;10.50;99.90
10964;DHT22;5534;48.784;9.190;2024-03-29T03:53:41;10.60;99.90
10964;DHT22;5534;48.784;9.190;2024-03-29T03:56:07;10.70;99.90
10964;DHT22;5534;48.784;9.190;2024-03-29T03:58:32;10.80;99.90
10964;DHT22;5534;48.784;9.190;2024-03-29T04:01:04;10.80;99.90
10964;DHT22;5534;48.784;9.190;2024-03-29T04:03:29;10.50;99.90
10964;DHT22;5534;48.784;9.190;2024-03-29T04:05:55;10.60;99.90
10964;DHT22;5534;48.784;9.190;2024-03-29T04:08:21;10.80;99.90
10964;DHT22;5534;48.784;9.190;2024-03-29T04:10:46;11.00;99.90
10964;DHT22;5534;48.784;9.190;2024-03-29T04:13:12;11.00;99.90
10964;DHT22;5534;48.784;9.190;2024-03-29T04:15:38;11.20;99.90
10964;DHT22;5534;48.784;9.190;2024-03-29T04:18:03;11.20;99.90
10964;DHT22;5534;48.784;9.190;2024-03-29T04:20:29;11.20;99.90
10964;DHT22;5534;48.784;9.190;2024-03-29T04:22:54;11.20;99.90
10964;DHT22;5534;48.784;9.190;2024-03-29T04:25:20;11.20;99.90
10964;DHT22;5534;48.784;9.190;2024-03-29T04:27:45;11.20;99.90
10964;DHT22;5534;48.784;9.190;2024-03-29T04:30:11;11.20;99.90
10964;DHT22;5534;48.784;9.190;2024-03-29T04:32:37;11.20;99.90
10964;DHT22;5534;48.784;9.190;2024-03-29T04:35:03;10.90;99.90
10964;DHT22;5534;48.784;9.190;2024-03-29T04:37:29;10.70;99.90
10964;DHT22;5534;48.784;9.190;2024-03-29T04:39:54;10.70;99.90
10964;DHT22;5534;48.784;9.190;2024-03-29T04:42:20;10.90;99.90
10964;DHT22;5534;48.784;9.190;2024-03-29T04:44:45;10.90;99.90
10964;DHT22;5534;48.784;9.190;2024-03-29T04:47:11;11.00;99.90
10964;DHT22;5534;48.784;9.190;2024-03-29T04:49:37;10.90;99.90
10964;DHT22;5534;48.784;9.190;2024-03-29T04:52:04;10.90;99.90
10964;DHT22;5534;48.784;9.190;2024-03-29T04:54:30;11.00;99.90
10964;DHT22;5534;48.784;9.190;2024-03-29T04:56:56;11.00;99.90
10964;DHT22;5534;48.784;9.190;2024-03-29T04:59:21;11.10;99.90
10964;DHT22;5534;48.784;9.190;2024-03-29T05:01:48;11.20;99.90
10964;DHT22;5534;48.784;9.190;2024-03-29T05:04:19;11.10;99.90
10964;DHT22;5534;48.784;9.190;2024-03-29T05:06:54;11.00;99.90
10964;DHT22;5534;48.784;9.190;2024-03-29T05:09:20;10.90;99.90
10964;DHT22;5534;48.784;9.190;2024-03-29T05:11:46;10.90;99.90
10964;DHT22;5534;48.784;9.190;2024-03-29T05:14:18;11.00;99.90
10964;DHT22;5534;48.784;9.190;2024-03-29T05:16:45;11.10;99.90
10964;DHT22;5534;48.784;9.190;2024-03-29T05:19:11;11.10;99.90
10964;DHT22;5534;48.784;9.190;2024-03-29T05:21:37;11.00;99.90
10964;DHT22;5534;48.784;9.190;2024-03-29T05:24:03;10.70;99.90
10964;DHT22;5534;48.784;9.190;2024-03-29T05:26:28;10.70;99.90
10964;DHT22;5534;48.784;9.190;2024-03-29T05:28:54;10.80;99.90
10964;DHT22;5534;48.784;9.190;2024-03-29T05:31:23;10.90;99.90
10964;DHT22;5534;48.784;9.190;2024-03-29T05:33:49;10.60;99.90
10964;DHT22;5534;48.784;9.190;2024-03-29T05:36:15;10.60;99.90
10964;DHT22;5534;48.784;9.190;2024-03-29T05:38:40;10.60;99.90
10964;DHT22;5534;48.784;9.190;2024-03-29T05:41:07;10.70;99.90
10964;DHT22;5534;48.784;9.190;2024-03-29T05:43:32;10.90;99.90
10964;DHT22;5534;48.784;9.190;2024-03-29T05:45:58;10.90;99.90
10964;DHT22;5534;48.784;9.190;2024-03-29T05:48:25;11.00;99.90
10964;DHT22;5534;48.784;9.190;2024-03-29T05:50:51;11.10;99.90
10964;DHT22;5534;48.784;9.190;2024-03-29T05:53:17;11.10;99.90
10964;DHT22;5534;48.784;9.190;2024-03-29T05:55:42;11.10;99.90
10964;DHT22;5534;48.784;9.190;2024-03-29T05:58:08;11.20;99.90
10964;DHT22;5534;48.784;9.190;2024-03-29T06:00:33;11.20;99.90
10964;DHT22;5534;48.784;9.190;2024-03-29T06:03:01;11.20;99.90
10964;DHT22;5534;48.784;9.190;2024-03-29T06:05:29;11.10;99.90
10964;DHT22;5534;48.784;9.190;2024-03-29T06:07:55;11.10;99.90
10964;DHT22;5534;48.784;9.190;2024-03-29T06:10:20;11.10;99.90
10964;DHT22;5534;48.784;9.190;2024-03-29T06:12:46;11.20;99.90
10964;DHT22;5534;48.784;9.190;2024-03-29T06:15:12;11.50;99.90
10964;DHT22;5534;48.784;9.190;2024-03-29T06:17:56;11.70;99.90
10964;DHT22;5534;48.784;9.190;2024-03-29T06:20:23;11.70;99.90
10964;DHT22;5534;48.784;9.190;2024-03-29T06:22:48;11.60;99.90
10964;DHT22;5534;48.784;9.190;2024-03-29T06:25:14;11.60;99.90
10964;DHT22;5534;48.784;9.190;2024-03-29T06:27:41;11.50;99.90
10964;DHT22;5534;48.784;9.190;2024-03-29T06:30:09;11.40;99.90
10964;DHT22;5534;48.784;9.190;2024-03-29T06:32:35;11.40;99.90
10964;DHT22;5534;48.784;9.190;2024-03-29T06:35:01;11.50;99.90
10964;DHT22;5534;48.784;9.190;2024-03-29T06:37:28;11.60;99.90
10964;DHT22;5534;48.784;9.190;2024-03-29T06:39:55;11.70;99.90
10964;DHT22;5534;48.784;9.190;2024-03-29T06:42:21;11.80;99.90
10964;DHT22;5534;48.784;9.190;2024-03-29T06:44:47;11.80;99.90
10964;DHT22;5534;48.784;9.190;2024-03-29T06:47:13;11.80;99.90
10964;DHT22;5534;48.784;9.190;2024-03-29T06:49:38;12.00;99.90
10964;DHT22;5534;48.784;9.190;2024-03-29T06:52:07;11.80;99.90
10964;DHT22;5534;48.784;9.190;2024-03-29T06:54:33;11.90;99.90
10964;DHT22;5534;48.784;9.190;2024-03-29T06:56:59;12.00;99.90
10964;DHT22;5534;48.784;9.190;2024-03-29T06:59:25;12.10;99.90
10964;DHT22;5534;48.784;9.190;2024-03-29T07:01:50;12.00;99.90
10964;DHT22;5534;48.784;9.190;2024-03-29T07:04:21;12.00;99.90
10964;DHT22;5534;48.784;9.190;2024-03-29T07:06:47;12.20;99.90
10964;DHT22;5534;48.784;9.190;2024-03-29T07:09:22;12.20;99.90
10964;DHT22;5534;48.784;9.190;2024-03-29T07:11:51;12.30;99.90
10964;DHT22;5534;48.784;9.190;2024-03-29T07:14:18;12.30;99.90
10964;DHT22;5534;48.784;9.190;2024-03-29T07:16:44;12.30;99.90
10964;DHT22;5534;48.784;9.190;2024-03-29T07:19:11;12.40;99.90
10964;DHT22;5534;48.784;9.190;2024-03-29T07:21:42;12.40;99.90
10964;DHT22;5534;48.784;9.190;2024-03-29T07:24:08;12.40;99.90
10964;DHT22;5534;48.784;9.190;2024-03-29T07:26:34;12.40;99.90
10964;DHT22;5534;48.784;9.190;2024-03-29T07:29:00;12.20;99.90
10964;DHT22;5534;48.784;9.190;2024-03-29T07:31:26;12.20;99.90
10964;DHT22;5534;48.784;9.190;2024-03-29T07:33:52;12.20;99.90
10964;DHT22;5534;48.784;9.190;2024-03-29T07:36:17;12.30;99.90
10964;DHT22;5534;48.784;9.190;2024-03-29T07:38:43;12.00;99.90
10964;DHT22;5534;48.784;9.190;2024-03-29T07:41:09;12.10;99.90
10964;DHT22;5534;48.784;9.190;2024-03-29T07:43:54;12.00;99.90
10964;DHT22;5534;48.784;9.190;2024-03-29T07:46:22;11.80;99.90
10964;DHT22;5534;48.784;9.190;2024-03-29T07:48:49;11.40;99.90
10964;DHT22;5534;48.784;9.190;2024-03-29T07:51:14;11.40;99.90
10964;DHT22;5534;48.784;9.190;2024-03-29T07:53:40;11.20;99.90
10964;DHT22;5534;48.784;9.190;2024-03-29T07:56:06;11.20;99.90
10964;DHT22;5534;48.784;9.190;2024-03-29T07:58:31;11.10;99.90
10964;DHT22;5534;48.784;9.190;2024-03-29T08:00:57;11.10;99.90
10964;DHT22;5534;48.784;9.190;2024-03-29T08:03:22;11.20;99.90
10964;DHT22;5534;48.784;9.190;2024-03-29T08:06:01;11.10;99.90
10964;DHT22;5534;48.784;9.190;2024-03-29T08:08:33;10.70;99.90
10964;DHT22;5534;48.784;9.190;2024-03-29T08:10:59;10.80;99.90
10964;DHT22;5534;48.784;9.190;2024-03-29T08:13:26;11.10;99.90
10964;DHT22;5534;48.784;9.190;2024-03-29T08:15:59;11.20;99.90
10964;DHT22;5534;48.784;9.190;2024-03-29T08:18:25;11.00;99.90
10964;DHT22;5534;48.784;9.190;2024-03-29T08:20:51;11.10;99.90
10964;DHT22;5534;48.784;9.190;2024-03-29T08:23:16;11.10;99.90
10964;DHT22;5534;48.784;9.190;2024-03-29T08:25:42;11.30;99.90
10964;DHT22;5534;48.784;9.190;2024-03-29T08:28:07;11.30;99.90
10964;DHT22;5534;48.784;9.190;2024-03-29T08:30:33;11.40;99.90
10964;DHT22;5534;48.784;9.190;2024-03-29T08:33:02;11.20;99.90
10964;DHT22;5534;48.784;9.190;2024-03-29T08:35:32;11.30;99.90
10964;DHT22;5534;48.784;9.190;2024-03-29T08:37:58;11.30;99.90
10964;DHT22;5534;48.784;9.190;2024-03-29T08:40:25;11.20;99.90
10964;DHT22;5534;48.784;9.190;2024-03-29T08:42:51;11.30;99.90
10964;DHT22;5534;48.784;9.190;2024-03-29T08:45:16;11.40;99.90
10964;DHT22;5534;48.784;9.190;2024-03-29T08:47:42;11.40;99.90
10964;DHT22;5534;48.784;9.190;2024-03-29T08:50:08;11.50;99.90
10964;DHT22;5534;48.784;9.190;2024-03-29T08:52:34;11.40;99.90
10964;DHT22;5534;48.784;9.190;2024-03-29T08:54:59;11.30;99.90
10964;DHT22;5534;48.784;9.190;2024-03-29T08:57:25;11.20;99.90
10964;DHT22;5534;48.784;9.190;2024-03-29T08:59:53;11.30;99.90
10964;DHT22;5534;48.784;9.190;2024-03-29T09:02:18;11.40;99.90
10964;DHT22;5534;48.784;9.190;2024-03-29T09:04:44;11.40;99.90
10964;DHT22;5534;48.784;9.190;2024-03-29T09:07:10;11.50;99.90
10964;DHT22;5534;48.784;9.190;2024-03-29T09:09:35;11.50;99.90
10964;DHT22;5534;48.784;9.190;2024-03-29T09:12:03;11.50;99.90
10964;DHT22;5534;48.784;9.190;2024-03-29T09:14:29;11.60;99.90
10964;DHT22;5534;48.784;9.190;2024-03-29T09:16:54;11.50;99.90
10964;DHT22;5534;48.784;9.190;2024-03-29T09:19:20;11.60;99.90
10964;DHT22;5534;48.784;9.190;2024-03-29T09:21:45;11.60;99.90
10964;DHT22;5534;48.784;9.190;2024-03-29T09:24:12;11.70;99.90
10964;DHT22;5534;48.784;9.190;2024-03-29T09:26:37;11.70;99.90
10964;DHT22;5534;48.784;9.190;2024-03-29T09:29:03;11.70;99.90
10964;DHT22;5534;48.784;9.190;2024-03-29T09:31:29;11.70;99.90
10964;DHT22;5534;48.784;9.190;2024-03-29T09:33:54;11.60;99.90
10964;DHT22;5534;48.784;9.190;2024-03-29T09:36:23;11.40;99.90
10964;DHT22;5534;48.784;9.190;2024-03-29T09:38:49;11.50;99.90
10964;DHT22;5534;48.784;9.190;2024-03-29T09:41:17;11.50;99.90
10964;DHT22;5534;48.784;9.190;2024-03-29T09:43:43;11.50;99.90
10964;DHT22;5534;48.784;9.190;2024-03-29T09:46:13;11.70;99.90
10964;DHT22;5534;48.784;9.190;2024-03-29T09:48:49;12.00;99.90
10964;DHT22;5534;48.784;9.190;2024-03-29T09:51:15;12.00;99.90
10964;DHT22;5534;48.784;9.190;2024-03-29T09:53:43;11.90;99.90
10964;DHT22;5534;48.784;9.190;2024-03-29T09:56:09;12.00;99.90
10964;DHT22;5534;48.784;9.190;2024-03-29T09:58:36;12.00;99.90
10964;DHT22;5534;48.784;9.190;2024-03-29T10:01:03;12.10;99.90
10964;DHT22;5534;48.784;9.190;2024-03-29T10:03:31;12.10;99.90
10964;DHT22;5534;48.784;9.190;2024-03-29T10:05:57;11.90;99.90
10964;DHT22;5534;48.784;9.190;2024-03-29T10:08:30;11.80;99.90
10964;DHT22;5534;48.784;9.190;2024-03-29T10:10:57;11.80;99.90
10964;DHT22;5534;48.784;9.190;2024-03-29T10:13:23;11.80;99.90
10964;DHT22;5534;48.784;9.190;2024-03-29T10:15:52;11.90;99.90
10964;DHT22;5534;48.784;9.190;2024-03-29T10:18:27;12.10;99.90
10964;DHT22;5534;48.784;9.190;2024-03-29T10:20:59;12.20;99.90
10964;DHT22;5534;48.784;9.190;2024-03-29T10:23:26;12.40;99.90
10964;DHT22;5534;48.784;9.190;2024-03-29T10:25:52;12.60;99.90
10964;DHT22;5534;48.784;9.190;2024-03-29T10:28:19;12.70;99.90
10964;DHT22;5534;48.784;9.190;2024-03-29T10:30:44;12.70;99.90
10964;DHT22;5534;48.784;9.190;2024-03-29T10:33:11;12.70;99.90
10964;DHT22;5534;48.784;9.190;2024-03-29T10:35:37;12.70;99.90
10964;DHT22;5534;48.784;9.190;2024-03-29T10:38:03;12.70;99.90
10964;DHT22;5534;48.784;9.190;2024-03-29T10:40:30;12.70;99.90
10964;DHT22;5534;48.784;9.190;2024-03-29T10:42:56;12.70;99.90
10964;DHT22;5534;48.784;9.190;2024-03-29T10:45:23;12.60;99.90
10964;DHT22;5534;48.784;9.190;2024-03-29T10:47:49;12.70;99.90
10964;DHT22;5534;48.784;9.190;2024-03-29T10:50:19;13.00;99.90
10964;DHT22;5534;48.784;9.190;2024-03-29T10:52:47;13.00;99.90
10964;DHT22;5534;48.784;9.190;2024-03-29T10:55:13;13.10;99.90
10964;DHT22;5534;48.784;9.190;2024-03-29T10:57:41;13.10;99.90
10964;DHT22;5534;48.784;9.190;2024-03-29T11:00:11;13.20;99.90
10964;DHT22;5534;48.784;9.190;2024-03-29T11:02:48;13.30;99.90
10964;DHT22;5534;48.784;9.190;2024-03-29T11:05:15;13.30;99.90
10964;DHT22;5534;48.784;9.190;2024-03-29T11:07:43;13.40;99.90
10964;DHT22;5534;48.784;9.190;2024-03-29T11:10:41;13.50;99.90
10964;DHT22;5534;48.784;9.190;2024-03-29T11:16:14;13.50;99.90
10964;DHT22;5534;48.784;9.190;2024-03-29T11:18:42;13.70;99.90
10964;DHT22;5534;48.784;9.190;2024-03-29T11:21:08;13.70;99.90
10964;DHT22;5534;48.784;9.190;2024-03-29T11:23:36;13.70;99.90
10964;DHT22;5534;48.784;9.190;2024-03-29T11:26:02;13.70;99.90
10964;DHT22;5534;48.784;9.190;2024-03-29T11:31:03;13.70;99.90
10964;DHT22;5534;48.784;9.190;2024-03-29T11:33:35;13.70;99.90
10964;DHT22;5534;48.784;9.190;2024-03-29T11:36:13;13.70;99.90
10964;DHT22;5534;48.784;9.190;2024-03-29T11:38:40;13.70;99.90
10964;DHT22;5534;48.784;9.190;2024-03-29T11:41:13;13.70;99.90
10964;DHT22;5534;48.784;9.190;2024-03-29T11:43:39;13.70;99.90
10964;DHT22;5534;48.784;9.190;2024-03-29T11:46:10;13.70;99.90
10964;DHT22;5534;48.784;9.190;2024-03-29T11:48:36;13.70;99.90
10964;DHT22;5534;48.784;9.190;2024-03-29T11:51:03;13.70;99.90
10964;DHT22;5534;48.784;9.190;2024-03-29T11:53:29;13.80;99.90
10964;DHT22;5534;48.784;9.190;2024-03-29T11:55:58;13.80;99.90
10964;DHT22;5534;48.784;9.190;2024-03-29T11:58:25;13.70;99.90
10964;DHT22;5534;48.784;9.190;2024-03-29T12:00:52;13.70;99.90
10964;DHT22;5534;48.784;9.190;2024-03-29T12:03:19;13.70;99.90
10964;DHT22;5534;48.784;9.190;2024-03-29T12:05:46;13.70;99.90
10964;DHT22;5534;48.784;9.190;2024-03-29T12:08:12;13.60;99.90
10964;DHT22;5534;48.784;9.190;2024-03-29T12:10:38;13.70;99.90
10964;DHT22;5534;48.784;9.190;2024-03-29T12:13:07;13.60;99.90
10964;DHT22;5534;48.784;9.190;2024-03-29T12:15:34;13.70;99.90
10964;DHT22;5534;48.784;9.190;2024-03-29T12:18:04;13.80;99.90
10964;DHT22;5534;48.784;9.190;2024-03-29T12:20:34;13.90;99.90
10964;DHT22;5534;48.784;9.190;2024-03-29T12:23:03;14.00;99.90
10964;DHT22;5534;48.784;9.190;2024-03-29T12:25:29;14.10;99.90
10964;DHT22;5534;48.784;9.190;2024-03-29T12:27:55;14.20;99.90
10964;DHT22;5534;48.784;9.190;2024-03-29T12:30:22;14.20;99.90
10964;DHT22;5534;48.784;9.190;2024-03-29T12:32:47;14.20;99.90
10964;DHT22;5534;48.784;9.190;2024-03-29T12:35:16;14.40;99.90
10964;DHT22;5534;48.784;9.190;2024-03-29T12:37:50;14.50;99.90
10964;DHT22;5534;48.784;9.190;2024-03-29T12:40:17;14.50;99.90
10964;DHT22;5534;48.784;9.190;2024-03-29T12:42:50;14.50;99.90
10964;DHT22;5534;48.784;9.190;2024-03-29T12:45:20;14.50;99.90
10964;DHT22;5534;48.784;9.190;2024-03-29T12:47:47;14.60;99.90
10964;DHT22;5534;48.784;9.190;2024-03-29T12:50:25;14.80;99.90
10964;DHT22;5534;48.784;9.190;2024-03-29T12:52:54;14.80;99.90
10964;DHT22;5534;48.784;9.190;2024-03-29T12:55:20;14.90;99.90
10964;DHT22;5534;48.784;9.190;2024-03-29T12:57:46;15.10;99.90
10964;DHT22;5534;48.784;9.190;2024-03-29T13:00:12;14.90;99.90
10964;DHT22;5534;48.784;9.190;2024-03-29T13:02:38;15.00;99.90
10964;DHT22;5534;48.784;9.190;2024-03-29T13:05:04;14.90;99.90
10964;DHT22;5534;48.784;9.190;2024-03-29T13:07:31;14.80;99.90
10964;DHT22;5534;48.784;9.190;2024-03-29T13:09:57;14.90;99.90
10964;DHT22;5534;48.784;9.190;2024-03-29T13:12:29;15.10;99.90
10964;DHT22;5534;48.784;9.190;2024-03-29T13:14:55;15.20;99.90
10964;DHT22;5534;48.784;9.190;2024-03-29T13:17:21;15.50;99.90
10964;DHT22;5534;48.784;9.190;2024-03-29T13:19:47;15.70;99.90
10964;DHT22;5534;48.784;9.190;2024-03-29T13:22:12;15.70;99.90
10964;DHT22;5534;48.784;9.190;2024-03-29T13:24:38;15.70;99.90
10964;DHT22;5534;48.784;9.190;2024-03-29T13:27:04;15.70;99.90
10964;DHT22;5534;48.784;9.190;2024-03-29T13:29:30;15.90;99.90
10964;DHT22;5534;48.784;9.190;2024-03-29T13:31:56;16.00;99.90
10964;DHT22;5534;48.784;9.190;2024-03-29T13:34:22;16.00;99.90
10964;DHT22;5534;48.784;9.190;2024-03-29T13:36:48;16.00;99.90
10964;DHT22;5534;48.784;9.190;2024-03-29T13:39:14;16.00;99.90
10964;DHT22;5534;48.784;9.190;2024-03-29T13:41:40;16.10;99.90
10964;DHT22;5534;48.784;9.190;2024-03-29T13:44:06;16.20;99.90
10964;DHT22;5534;48.784;9.190;2024-03-29T13:46:36;16.20;99.90
10964;DHT22;5534;48.784;9.190;2024-03-29T13:49:02;16.20;99.90
10964;DHT22;5534;48.784;9.190;2024-03-29T13:51:31;16.10;99.90
10964;DHT22;5534;48.784;9.190;2024-03-29T13:53:56;16.20;99.90
10964;DHT22;5534;48.784;9.190;2024-03-29T13:56:22;16.30;99.90
10964;DHT22;5534;48.784;9.190;2024-03-29T13:58:48;16.50;99.90
10964;DHT22;5534;48.784;9.190;2024-03-29T14:01:14;16.50;99.90
10964;DHT22;5534;48.784;9.190;2024-03-29T14:03:39;16.50;99.90
10964;DHT22;5534;48.784;9.190;2024-03-29T14:06:06;16.50;99.90
10964;DHT22;5534;48.784;9.190;2024-03-29T14:08:32;16.40;99.90
10964;DHT22;5534;48.784;9.190;2024-03-29T14:10:58;16.40;99.90
10964;DHT22;5534;48.784;9.190;2024-03-29T14:13:24;16.40;99.90
10964;DHT22;5534;48.784;9.190;2024-03-29T14:15:50;16.50;99.90
10964;DHT22;5534;48.784;9.190;2024-03-29T14:18:16;16.40;99.90
10964;DHT22;5534;48.784;9.190;2024-03-29T14:20:41;16.30;99.90
10964;DHT22;5534;48.784;9.190;2024-03-29T14:23:07;16.40;99.90
10964;DHT22;5534;48.784;9.190;2024-03-29T14:25:36;16.40;99.90
10964;DHT22;5534;48.784;9.190;2024-03-29T14:28:02;16.60;99.90
10964;DHT22;5534;48.784;9.190;2024-03-29T14:30:29;16.50;99.90
10964;DHT22;5534;48.784;9.190;2024-03-29T14:32:59;16.60;99.90
10964;DHT22;5534;48.784;9.190;2024-03-29T14:35:32;16.60;99.90
10964;DHT22;5534;48.784;9.190;2024-03-29T14:37:58;16.60;99.90
10964;DHT22;5534;48.784;9.190;2024-03-29T14:40:25;16.60;99.90
10964;DHT22;5534;48.784;9.190;2024-03-29T14:42:52;16.70;99.90
10964;DHT22;5534;48.784;9.190;2024-03-29T14:45:19;16.70;99.90
10964;DHT22;5534;48.784;9.190;2024-03-29T14:47:44;16.70;99.90
10964;DHT22;5534;48.784;9.190;2024-03-29T14:50:10;16.70;99.90
10964;DHT22;5534;48.784;9.190;2024-03-29T14:52:36;16.70;99.90
10964;DHT22;5534;48.784;9.190;2024-03-29T14:55:02;16.60;99.90
10964;DHT22;5534;48.784;9.190;2024-03-29T14:57:28;16.70;99.90
10964;DHT22;5534;48.784;9.190;2024-03-29T14:59:53;16.70;99.90
10964;DHT22;5534;48.784;9.190;2024-03-29T15:02:19;16.50;99.90
10964;DHT22;5534;48.784;9.190;2024-03-29T15:04:45;16.40;99.90
10964;DHT22;5534;48.784;9.190;2024-03-29T15:07:10;16.40;99.90
10964;DHT22;5534;48.784;9.190;2024-03-29T15:09:37;16.40;99.90
10964;DHT22;5534;48.784;9.190;2024-03-29T15:12:02;16.40;99.90
10964;DHT22;5534;48.784;9.190;2024-03-29T15:14:29;16.40;99.90
10964;DHT22;5534;48.784;9.190;2024-03-29T15:16:55;16.30;99.90
10964;DHT22;5534;48.784;9.190;2024-03-29T15:19:21;16.30;99.90
10964;DHT22;5534;48.784;9.190;2024-03-29T15:21:47;16.30;99.90
10964;DHT22;5534;48.784;9.190;2024-03-29T15:24:13;16.30;99.90
10964;DHT22;5534;48.784;9.190;2024-03-29T15:26:38;16.30;99.90
10964;DHT22;5534;48.784;9.190;2024-03-29T15:29:04;16.40;99.90
10964;DHT22;5534;48.784;9.190;2024-03-29T15:31:37;16.40;99.90
10964;DHT22;5534;48.784;9.190;2024-03-29T15:34:07;16.50;99.90
10964;DHT22;5534;48.784;9.190;2024-03-29T15:36:34;16.60;99.90
10964;DHT22;5534;48.784;9.190;2024-03-29T15:39:01;16.50;99.90
10964;DHT22;5534;48.784;9.190;2024-03-29T15:41:45;16.50;99.90
10964;DHT22;5534;48.784;9.190;2024-03-29T15:44:11;16.30;99.90
10964;DHT22;5534;48.784;9.190;2024-03-29T15:46:37;16.30;99.90
10964;DHT22;5534;48.784;9.190;2024-03-29T15:49:03;16.30;99.90